createdAt,value
2018-07-20T00:01:40.550Z,20.20
2018-07-20T00:04:08.598Z,20.20
2018-07-20T00:11:33.887Z,20.00
2018-07-20T00:14:01.938Z,20.00
2018-07-20T00:18:57.829Z,20.00
2018-07-20T00:21:25.886Z,19.90
2018-07-20T00:23:53.931Z,19.80
2018-07-20T00:26:22.045Z,19.80
2018-07-20T00:28:50.106Z,19.70
2018-07-20T00:31:18.174Z,19.70
2018-07-20T00:33:46.274Z,19.60
2018-07-20T00:36:14.374Z,19.60
2018-07-20T00:38:42.433Z,19.60
2018-07-20T00:41:10.540Z,19.60
2018-07-20T00:43:38.529Z,19.50
2018-07-20T00:46:06.734Z,19.50
2018-07-20T00:48:34.786Z,19.50
2018-07-20T00:51:02.826Z,19.50
2018-07-20T00:53:30.873Z,19.50
2018-07-20T00:55:58.934Z,19.50
2018-07-20T00:58:27.321Z,19.40
2018-07-20T01:00:55.394Z,19.30
2018-07-20T01:03:23.438Z,19.30
2018-07-20T01:05:51.517Z,19.30
2018-07-20T01:08:19.591Z,19.30
2018-07-20T01:10:47.645Z,19.30
2018-07-20T01:15:43.550Z,19.30
2018-07-20T01:20:39.426Z,19.20
2018-07-20T01:23:07.482Z,19.20
2018-07-20T01:25:35.553Z,19.20
2018-07-20T01:28:03.624Z,19.20
2018-07-20T01:32:59.557Z,19.20
2018-07-20T01:35:27.634Z,19.20
2018-07-20T01:37:55.687Z,19.20
2018-07-20T01:40:23.745Z,19.10
2018-07-20T01:42:51.846Z,18.90
2018-07-20T01:45:19.906Z,18.80
2018-07-20T01:50:15.822Z,18.70
2018-07-20T01:55:11.754Z,18.60
2018-07-20T01:57:39.802Z,18.50
2018-07-20T02:00:07.855Z,18.50
2018-07-20T02:02:35.928Z,18.50
2018-07-20T02:05:04.010Z,18.60
2018-07-20T02:07:32.059Z,18.50
2018-07-20T02:10:00.122Z,18.50
2018-07-20T02:12:28.254Z,18.50
2018-07-20T02:14:56.307Z,18.50
2018-07-20T02:17:24.366Z,18.50
2018-07-20T02:19:52.486Z,18.50
2018-07-20T02:22:20.554Z,18.60
2018-07-20T02:27:16.458Z,18.50
2018-07-20T02:32:12.401Z,18.50
2018-07-20T02:34:40.462Z,18.50
2018-07-20T02:37:08.521Z,18.50
2018-07-20T02:39:36.621Z,18.50
2018-07-20T02:42:04.671Z,18.50
2018-07-20T02:44:32.725Z,18.50
2018-07-20T02:47:00.794Z,18.50
2018-07-20T02:49:28.843Z,18.40
2018-07-20T02:51:56.900Z,18.30
2018-07-20T02:54:24.955Z,18.30
2018-07-20T02:56:53.017Z,18.20
2018-07-20T02:59:21.073Z,18.20
2018-07-20T03:01:49.130Z,18.20
2018-07-20T03:04:17.201Z,18.20
2018-07-20T03:06:45.443Z,18.20
2018-07-20T03:09:14.194Z,18.30
2018-07-20T03:11:43.494Z,18.20
2018-07-20T03:14:11.536Z,18.20
2018-07-20T03:16:39.659Z,18.20
2018-07-20T03:19:07.954Z,18.20
2018-07-20T03:21:36.024Z,18.20
2018-07-20T03:24:04.195Z,18.10
2018-07-20T03:31:27.938Z,17.90
2018-07-20T03:33:55.990Z,17.90
2018-07-20T03:36:24.067Z,17.80
2018-07-20T03:38:52.126Z,17.80
2018-07-20T03:43:48.102Z,17.70
2018-07-20T03:46:16.159Z,17.60
2018-07-20T03:48:44.242Z,17.50
2018-07-20T03:51:12.298Z,17.50
2018-07-20T03:53:40.345Z,17.40
2018-07-20T03:56:08.381Z,17.30
2018-07-20T03:58:36.426Z,17.40
2018-07-20T04:01:04.474Z,17.30
2018-07-20T04:03:32.522Z,17.30
2018-07-20T04:06:00.602Z,17.40
2018-07-20T04:08:28.674Z,17.30
2018-07-20T04:10:56.827Z,17.30
2018-07-20T04:13:24.918Z,17.30
2018-07-20T04:15:52.966Z,17.30
2018-07-20T04:20:48.878Z,17.50
2018-07-20T04:25:44.950Z,17.50
2018-07-20T04:28:13.007Z,17.50
2018-07-20T04:30:41.043Z,17.50
2018-07-20T04:33:09.079Z,17.50
2018-07-20T04:35:37.122Z,17.60
2018-07-20T04:38:05.176Z,17.60
2018-07-20T04:43:01.063Z,17.80
2018-07-20T04:45:28.450Z,17.90
2018-07-20T04:47:56.507Z,18.00
2018-07-20T04:50:24.545Z,18.20
2018-07-20T04:52:52.586Z,18.30
2018-07-20T04:55:20.638Z,18.40
2018-07-20T04:57:48.699Z,18.50
2018-07-20T05:02:44.574Z,18.70
2018-07-20T05:05:12.618Z,18.70
2018-07-20T05:07:40.667Z,18.80
2018-07-20T05:10:08.738Z,18.80
2018-07-20T05:12:36.782Z,18.90
2018-07-20T05:15:04.880Z,19.00
2018-07-20T05:20:00.122Z,19.20
2018-07-20T05:22:27.512Z,19.30
2018-07-20T05:27:22.073Z,19.30
2018-07-20T05:29:50.109Z,19.40
2018-07-20T05:32:18.265Z,19.50
2018-07-20T05:34:45.665Z,19.50
2018-07-20T05:37:13.046Z,19.50
2018-07-20T05:39:41.083Z,19.40
2018-07-20T05:42:09.116Z,19.30
2018-07-20T05:44:36.488Z,19.40
2018-07-20T05:47:04.533Z,19.50
2018-07-20T05:49:32.567Z,19.60
2018-07-20T05:52:00.189Z,19.50
2018-07-20T05:56:55.398Z,19.60
2018-07-20T05:59:23.430Z,19.70
2018-07-20T06:01:50.809Z,19.70
2018-07-20T06:04:18.194Z,19.80
2018-07-20T06:06:46.269Z,19.80
2018-07-20T06:11:41.476Z,20.00
2018-07-20T06:14:09.937Z,20.10
2018-07-20T06:16:37.942Z,20.30
2018-07-20T06:19:06.016Z,20.40
2018-07-20T06:21:34.024Z,20.50
2018-07-20T06:24:02.213Z,20.60
2018-07-20T06:26:30.259Z,20.50
2018-07-20T06:28:58.299Z,20.70
2018-07-20T06:31:25.669Z,20.80
2018-07-20T06:36:20.241Z,21.00
2018-07-20T06:38:47.621Z,21.10
2018-07-20T06:41:15.033Z,21.20
2018-07-20T06:43:43.078Z,21.20
2018-07-20T06:46:11.114Z,21.40
2018-07-20T06:48:38.493Z,21.50
2018-07-20T06:51:05.873Z,21.50
2018-07-20T06:53:33.274Z,21.50
2018-07-20T06:56:00.653Z,21.30
2018-07-20T06:58:28.026Z,21.40
2018-07-20T07:00:55.413Z,21.50
2018-07-20T07:05:49.969Z,21.70
2018-07-20T07:08:17.353Z,21.80
2018-07-20T07:10:44.746Z,21.90
2018-07-20T07:13:12.161Z,21.70
2018-07-20T07:15:40.204Z,21.70
2018-07-20T07:18:08.243Z,21.70
2018-07-20T07:20:35.630Z,21.60
2018-07-20T07:23:03.036Z,21.60
2018-07-20T07:25:31.070Z,21.70
2018-07-20T07:27:58.454Z,21.70
2018-07-20T07:30:26.497Z,21.70
2018-07-20T07:32:54.678Z,21.60
2018-07-20T07:35:22.062Z,21.50
2018-07-20T07:37:50.106Z,21.40
2018-07-20T07:42:45.984Z,21.50
2018-07-20T07:45:14.050Z,21.50
2018-07-20T07:47:42.094Z,21.50
2018-07-20T07:50:09.681Z,21.70
2018-07-20T07:55:04.942Z,21.90
2018-07-20T07:57:32.981Z,22.10
2018-07-20T08:00:00.573Z,22.40
2018-07-20T08:04:55.126Z,22.60
2018-07-20T08:07:22.503Z,22.70
2018-07-20T08:09:49.963Z,22.80
2018-07-20T08:12:17.926Z,22.90
2018-07-20T08:14:45.317Z,22.90
2018-07-20T08:22:07.732Z,23.30
2018-07-20T08:24:35.109Z,23.40
2018-07-20T08:27:02.538Z,23.50
2018-07-20T08:31:57.077Z,23.60
2018-07-20T08:34:24.457Z,23.80
2018-07-20T08:36:51.828Z,23.80
2018-07-20T08:39:19.865Z,23.80
2018-07-20T08:41:47.258Z,24.00
2018-07-20T08:44:14.635Z,23.90
2018-07-20T08:49:09.850Z,24.00
2018-07-20T08:51:37.877Z,24.20
2018-07-20T08:54:05.982Z,24.30
2018-07-20T08:56:33.955Z,24.30
2018-07-20T08:59:02.110Z,24.20
2018-07-20T09:01:29.381Z,24.30
2018-07-20T09:06:24.593Z,24.40
2018-07-20T09:08:51.978Z,24.50
2018-07-20T09:11:19.366Z,24.60
2018-07-20T09:13:46.893Z,24.80
2018-07-20T09:16:14.133Z,24.90
2018-07-20T09:18:41.517Z,25.00
2018-07-20T09:21:08.921Z,25.00
2018-07-20T09:23:36.301Z,25.10
2018-07-20T09:26:04.342Z,25.10
2018-07-20T09:28:31.742Z,25.20
2018-07-20T09:30:59.118Z,25.30
2018-07-20T09:33:26.489Z,25.50
2018-07-20T09:35:53.873Z,25.60
2018-07-20T09:40:48.426Z,25.70
2018-07-20T09:43:15.805Z,25.80
2018-07-20T09:45:43.193Z,25.80
2018-07-20T09:48:10.574Z,26.00
2018-07-20T09:53:05.390Z,26.20
2018-07-20T09:55:32.921Z,26.30
2018-07-20T09:58:00.958Z,26.30
2018-07-20T10:00:33.873Z,26.40
2018-07-20T10:03:01.254Z,26.60
2018-07-20T10:07:56.656Z,26.50
2018-07-20T10:12:51.292Z,26.50
2018-07-20T10:15:19.330Z,26.40
2018-07-20T10:17:46.713Z,26.60
2018-07-20T10:20:14.101Z,26.70
2018-07-20T10:22:42.133Z,26.80
2018-07-20T10:25:10.189Z,27.00
2018-07-20T10:27:38.217Z,27.20
2018-07-20T10:30:06.309Z,27.40
2018-07-20T10:32:33.689Z,27.60
2018-07-20T10:35:01.727Z,27.70
2018-07-20T10:37:29.765Z,27.60
2018-07-20T10:39:57.142Z,27.50
2018-07-20T10:42:24.557Z,27.60
2018-07-20T10:44:51.892Z,27.80
2018-07-20T10:47:19.272Z,28.20
2018-07-20T10:49:47.338Z,28.40
2018-07-20T10:52:15.827Z,28.50
2018-07-20T10:57:11.702Z,28.10
2018-07-20T10:59:39.741Z,28.20
2018-07-20T11:02:07.769Z,28.50
2018-07-20T11:04:35.810Z,28.80
2018-07-20T11:07:03.838Z,29.10
2018-07-20T11:09:31.865Z,29.30
2018-07-20T11:11:59.902Z,29.60
2018-07-20T11:14:27.933Z,29.60
2018-07-20T11:16:55.965Z,29.40
2018-07-20T11:19:24.189Z,29.60
2018-07-20T11:21:52.362Z,29.50
2018-07-20T11:24:20.397Z,29.70
2018-07-20T11:26:48.433Z,29.70
2018-07-20T11:29:16.461Z,30.10
2018-07-20T11:34:12.323Z,30.60
2018-07-20T11:36:39.841Z,30.90
2018-07-20T11:39:07.909Z,30.70
2018-07-20T11:41:36.196Z,30.90
2018-07-20T11:44:03.773Z,30.40
2018-07-20T11:48:58.980Z,31.50
2018-07-20T11:51:26.360Z,32.00
2018-07-20T11:53:53.773Z,32.50
2018-07-20T11:56:21.141Z,33.00
2018-07-20T11:58:48.544Z,33.00
2018-07-20T12:01:15.957Z,32.90
2018-07-20T12:03:43.421Z,32.70
2018-07-20T12:06:10.810Z,32.90
2018-07-20T12:08:38.220Z,33.00
2018-07-20T12:11:05.773Z,33.10
2018-07-20T12:13:33.157Z,32.80
2018-07-20T12:16:00.532Z,32.10
2018-07-20T12:18:27.930Z,31.60
2018-07-20T12:20:55.281Z,31.40
2018-07-20T12:23:23.322Z,31.50
2018-07-20T12:25:50.693Z,31.80
2018-07-20T12:30:46.565Z,32.20
2018-07-20T12:33:14.597Z,31.80
2018-07-20T12:35:42.005Z,32.00
2018-07-20T12:40:37.209Z,32.20
2018-07-20T12:43:05.242Z,32.30
2018-07-20T12:47:59.925Z,33.00
2018-07-20T12:52:55.217Z,33.00
2018-07-20T12:57:49.829Z,32.90
2018-07-20T13:00:17.237Z,32.90
2018-07-20T13:05:12.009Z,33.60
2018-07-20T13:10:06.552Z,33.80
2018-07-20T13:12:33.941Z,34.10
2018-07-20T13:17:28.501Z,33.00
2018-07-20T13:19:55.887Z,33.20
2018-07-20T13:22:23.917Z,32.90
2018-07-20T13:24:51.952Z,33.00
2018-07-20T13:29:47.157Z,33.30
2018-07-20T13:32:14.533Z,33.20
2018-07-20T13:34:42.597Z,33.10
2018-07-20T13:37:09.973Z,33.30
2018-07-20T13:39:37.345Z,33.60
2018-07-20T13:42:04.730Z,33.70
2018-07-20T13:44:32.134Z,33.90
2018-07-20T13:46:59.505Z,33.90
2018-07-20T13:49:26.884Z,34.10
2018-07-20T13:54:22.101Z,33.50
2018-07-20T13:56:49.501Z,33.60
2018-07-20T14:01:44.065Z,34.20
2018-07-20T14:04:11.447Z,34.10
2018-07-20T14:06:38.817Z,34.10
2018-07-20T14:09:06.765Z,34.10
2018-07-20T14:11:34.794Z,34.20
2018-07-20T14:14:02.169Z,34.60
2018-07-20T14:16:29.548Z,34.70
2018-07-20T14:18:56.925Z,34.80
2018-07-20T14:21:24.306Z,34.70
2018-07-20T14:23:52.335Z,35.00
2018-07-20T14:26:19.734Z,35.10
2018-07-20T14:28:47.101Z,34.80
2018-07-20T14:31:14.485Z,34.10
2018-07-20T14:33:41.869Z,33.20
2018-07-20T14:36:09.905Z,32.20
2018-07-20T14:38:37.281Z,32.10
2018-07-20T14:41:04.658Z,32.20
2018-07-20T14:43:32.046Z,32.00
2018-07-20T14:45:59.446Z,31.90
2018-07-20T14:48:27.498Z,31.30
2018-07-20T14:50:55.525Z,31.20
2018-07-20T14:53:23.558Z,31.20
2018-07-20T14:55:50.953Z,31.20
2018-07-20T14:58:18.333Z,31.10
2018-07-20T15:00:45.723Z,31.20
2018-07-20T15:03:13.096Z,30.90
2018-07-20T15:05:40.473Z,31.00
2018-07-20T15:08:07.845Z,30.80
2018-07-20T15:10:35.281Z,30.70
2018-07-20T15:15:29.773Z,30.60
2018-07-20T15:17:57.185Z,30.60
2018-07-20T15:20:24.535Z,30.40
2018-07-20T15:22:51.919Z,30.30
2018-07-20T15:25:19.293Z,30.30
2018-07-20T15:27:46.669Z,30.10
2018-07-20T15:30:14.057Z,29.80
2018-07-20T15:32:41.429Z,29.80
2018-07-20T15:35:08.810Z,29.80
2018-07-20T15:37:36.196Z,29.80
2018-07-20T15:40:03.589Z,29.70
2018-07-20T15:42:30.958Z,29.70
2018-07-20T15:44:59.002Z,29.80
2018-07-20T15:49:53.544Z,29.70
2018-07-20T15:54:48.665Z,29.60
2018-07-20T15:59:43.549Z,29.40
2018-07-20T16:04:38.810Z,29.30
2018-07-20T16:07:06.389Z,29.30
2018-07-20T16:09:33.781Z,29.10
2018-07-20T16:12:01.182Z,28.90
2018-07-20T16:14:28.581Z,28.90
2018-07-20T16:16:55.957Z,28.90
2018-07-20T16:19:23.333Z,28.60
2018-07-20T16:21:50.725Z,28.50
2018-07-20T16:26:45.272Z,28.60
2018-07-20T16:29:12.649Z,28.80
2018-07-20T16:34:07.856Z,29.30
2018-07-20T16:36:35.897Z,29.40
2018-07-20T16:41:30.589Z,29.70
2018-07-20T16:43:57.969Z,29.60
2018-07-20T16:46:26.006Z,29.80
2018-07-20T16:48:53.384Z,30.10
2018-07-20T16:51:20.766Z,30.10
2018-07-20T16:53:48.165Z,30.00
2018-07-20T16:56:15.549Z,29.80
2018-07-20T16:58:43.590Z,29.40
2018-07-20T17:01:10.979Z,29.00
2018-07-20T17:03:38.381Z,28.80
2018-07-20T17:06:05.761Z,28.50
2018-07-20T17:08:33.196Z,28.10
2018-07-20T17:11:00.514Z,27.70
2018-07-20T17:13:27.884Z,27.30
2018-07-20T17:15:56.117Z,27.20
2018-07-20T17:18:23.508Z,27.00
2018-07-20T17:20:50.881Z,26.70
2018-07-20T17:23:18.417Z,26.50
2018-07-20T17:25:45.786Z,26.40
2018-07-20T17:28:13.206Z,26.20
2018-07-20T17:30:41.200Z,26.10
2018-07-20T17:33:09.261Z,26.00
2018-07-20T17:35:37.289Z,25.90
2018-07-20T17:38:04.680Z,25.90
2018-07-20T17:40:32.060Z,25.80
2018-07-20T17:42:59.439Z,25.70
2018-07-20T17:45:26.818Z,25.60
2018-07-20T17:50:21.368Z,25.50
2018-07-20T17:52:48.741Z,25.40
2018-07-20T17:57:43.950Z,25.20
2018-07-20T18:00:11.341Z,25.10
2018-07-20T18:02:38.790Z,25.00
2018-07-20T18:05:06.295Z,25.00
2018-07-20T18:07:33.677Z,24.80
2018-07-20T18:10:01.083Z,24.80
2018-07-20T18:12:28.456Z,24.70
2018-07-20T18:14:55.853Z,24.70
2018-07-20T18:17:23.280Z,24.60
2018-07-20T18:19:50.672Z,24.60
2018-07-20T18:22:18.784Z,24.60
2018-07-20T18:24:46.257Z,24.60
2018-07-20T18:27:13.808Z,24.50
2018-07-20T18:29:41.042Z,24.50
2018-07-20T18:32:08.534Z,24.40
2018-07-20T18:34:36.601Z,24.40
2018-07-20T18:37:04.671Z,24.30
2018-07-20T18:39:32.045Z,24.30
2018-07-20T18:41:59.486Z,24.20
2018-07-20T18:44:26.846Z,24.20
2018-07-20T18:46:54.220Z,24.10
2018-07-20T18:49:21.593Z,24.10
2018-07-20T18:51:48.981Z,24.00
2018-07-20T18:54:17.022Z,24.00
2018-07-20T18:56:45.063Z,23.90
2018-07-20T18:59:13.173Z,23.80
2018-07-20T19:01:41.218Z,23.80
2018-07-20T19:04:08.610Z,23.80
2018-07-20T19:09:04.252Z,23.70
2018-07-20T19:11:31.637Z,23.60
2018-07-20T19:13:59.020Z,23.60
2018-07-20T19:16:26.429Z,23.60
2018-07-20T19:18:53.825Z,23.60
2018-07-20T19:21:21.281Z,23.60
2018-07-20T19:23:48.797Z,23.60
2018-07-20T19:26:16.044Z,23.70
2018-07-20T19:28:44.097Z,23.60
2018-07-20T19:31:11.484Z,23.60
2018-07-20T19:33:38.872Z,23.60
2018-07-20T19:36:06.281Z,23.60
2018-07-20T19:38:33.685Z,23.60
2018-07-20T19:41:01.086Z,23.60
2018-07-20T19:43:28.478Z,23.60
2018-07-20T19:45:55.873Z,23.50
2018-07-20T19:48:23.317Z,23.50
2018-07-20T19:50:50.710Z,23.50
2018-07-20T19:53:18.106Z,23.50
2018-07-20T19:55:45.497Z,23.40
2018-07-20T19:58:12.996Z,23.40
2018-07-20T20:00:40.369Z,23.40
2018-07-20T20:03:07.752Z,23.40
2018-07-20T20:05:35.187Z,23.40
2018-07-20T20:08:02.606Z,23.40
2018-07-20T20:10:30.006Z,23.40
2018-07-20T20:12:57.748Z,23.40
2018-07-20T20:15:25.194Z,23.30
2018-07-20T20:17:52.558Z,23.30
2018-07-20T20:20:20.722Z,23.30
2018-07-20T20:22:48.769Z,23.30
2018-07-20T20:25:16.836Z,23.30
2018-07-20T20:27:44.894Z,23.20
2018-07-20T20:30:12.962Z,23.20
2018-07-20T20:32:41.029Z,23.20
2018-07-20T20:35:09.094Z,23.10
2018-07-20T20:37:37.141Z,23.10
2018-07-20T20:40:05.285Z,23.00
2018-07-20T20:42:33.355Z,23.00
2018-07-20T20:45:01.401Z,22.90
2018-07-20T20:47:29.481Z,22.90
2018-07-20T20:49:57.578Z,22.90
2018-07-20T20:52:24.969Z,22.80
2018-07-20T20:54:53.031Z,22.70
2018-07-20T20:57:20.434Z,22.60
2018-07-20T20:59:47.862Z,22.50
2018-07-20T21:02:15.257Z,22.40
2018-07-20T21:04:42.655Z,22.40
2018-07-20T21:07:10.037Z,22.30
2018-07-20T21:09:38.069Z,22.20
2018-07-20T21:12:06.435Z,22.00
2018-07-20T21:14:34.389Z,22.00
2018-07-20T21:17:02.428Z,22.00
2018-07-20T21:19:30.510Z,22.00
2018-07-20T21:21:58.574Z,22.00
2018-07-20T21:24:26.625Z,22.00
2018-07-20T21:26:54.669Z,21.90
2018-07-20T21:29:22.713Z,21.90
2018-07-20T21:31:50.802Z,21.90
2018-07-20T21:34:18.866Z,21.80
2018-07-20T21:36:46.938Z,21.80
2018-07-20T21:39:14.986Z,21.80
2018-07-20T21:44:11.466Z,21.70
2018-07-20T21:46:39.809Z,21.70
2018-07-20T21:49:08.086Z,21.70
2018-07-20T21:51:35.584Z,21.60
2018-07-20T21:54:02.966Z,21.60
2018-07-20T21:56:30.472Z,21.50
2018-07-20T21:58:57.845Z,21.50
2018-07-20T22:01:25.267Z,21.40
2018-07-20T22:03:52.641Z,21.40
2018-07-20T22:06:20.046Z,21.40
2018-07-20T22:08:47.438Z,21.40
2018-07-20T22:11:15.522Z,21.40
2018-07-20T22:16:10.076Z,21.20
2018-07-20T22:18:37.474Z,21.10
2018-07-20T22:21:04.882Z,21.10
2018-07-20T22:25:59.433Z,21.10
2018-07-20T22:28:26.850Z,21.10
2018-07-20T22:30:54.238Z,21.10
2018-07-20T22:35:48.918Z,21.10
2018-07-20T22:38:16.355Z,21.00
2018-07-20T22:40:43.713Z,20.90
2018-07-20T22:43:11.756Z,20.80
2018-07-20T22:48:07.614Z,20.80
2018-07-20T22:50:35.681Z,20.70
2018-07-20T22:53:03.726Z,20.60
2018-07-20T22:55:31.770Z,20.50
2018-07-20T22:57:59.818Z,20.40
2018-07-20T23:00:27.889Z,20.40
2018-07-20T23:02:55.959Z,20.30
2018-07-20T23:05:24.018Z,20.20
2018-07-20T23:07:52.094Z,20.20
2018-07-20T23:10:20.123Z,20.30
2018-07-20T23:12:48.217Z,20.40
2018-07-20T23:17:44.179Z,20.40
2018-07-20T23:20:12.214Z,20.40
2018-07-20T23:22:40.389Z,20.50
2018-07-20T23:25:07.773Z,20.50
2018-07-20T23:30:03.006Z,20.50
2018-07-20T23:32:30.397Z,20.50
2018-07-20T23:34:58.435Z,20.50
2018-07-20T23:37:25.840Z,20.60
2018-07-20T23:39:53.209Z,20.50
2018-07-20T23:42:20.614Z,20.50
2018-07-20T23:44:48.015Z,20.50
2018-07-20T23:47:15.406Z,20.50
2018-07-20T23:49:42.832Z,20.50
2018-07-20T23:52:10.885Z,20.50
2018-07-20T23:54:38.939Z,20.50
2018-07-20T23:57:06.327Z,20.50
2018-07-20T23:59:34.413Z,20.50
